Time;durP1;ratioP1;P1;durP2;ratioP2;P2;SDS_P1;SDS_P2;PMS_P1;PMS_P2;Temp;Humidity;BMP_temperature;BMP_pressure;BME280_temperature;BME280_humidity;BME280_pressure;Samples;Min_cycle;Max_cycle;Signal;HPM_P1;HPM_P2
2022/07/22 00:00:48;;;;;;;9.50;2.95;;;;;;;18.27;100.00;101692.19;5045785;28;20053;-73
2022/07/22 00:03:15;;;;;;;10.73;3.17;;;;;;;18.25;100.00;101694.63;5041633;28;20052;-73
2022/07/22 00:05:41;;;;;;;8.25;3.40;;;;;;;18.26;100.00;101693.38;5047230;28;20048;-71
2022/07/22 00:08:08;;;;;;;6.97;3.08;;;;;;;18.23;100.00;101697.06;5049355;28;20055;-74
2022/07/22 00:10:34;;;;;;;10.77;3.78;;;;;;;18.23;100.00;101694.25;5043103;28;20128;-72
2022/07/22 00:13:01;;;;;;;7.13;3.25;;;;;;;18.25;100.00;101703.03;5036697;28;20423;-75
2022/07/22 00:15:27;;;;;;;8.95;3.33;;;;;;;18.24;100.00;101703.44;5049700;28;20532;-73
2022/07/22 00:17:54;;;;;;;6.72;3.05;;;;;;;18.16;100.00;101702.78;5047026;28;20052;-75
2022/07/22 00:20:21;;;;;;;11.10;4.10;;;;;;;18.15;100.00;101689.22;5050328;28;20090;-72
2022/07/22 00:22:47;;;;;;;10.93;4.45;;;;;;;18.19;100.00;101696.31;5042487;28;20738;-73
2022/07/22 00:25:14;;;;;;;11.82;4.05;;;;;;;18.21;100.00;101696.69;5041259;28;20053;-76
2022/07/22 00:27:41;;;;;;;11.75;3.60;;;;;;;18.23;100.00;101699.88;5045051;28;20055;-74
2022/07/22 00:30:08;;;;;;;10.40;3.78;;;;;;;18.24;100.00;101697.84;5045477;28;20845;-72
2022/07/22 00:32:36;;;;;;;17.80;4.82;;;;;;;18.22;100.00;101700.28;5045739;28;20064;-72
2022/07/22 00:35:03;;;;;;;10.00;4.55;;;;;;;18.19;100.00;101701.91;5034000;28;20049;-74
2022/07/22 00:37:29;;;;;;;12.60;3.65;;;;;;;18.21;100.00;101699.50;5042969;28;20048;-72
2022/07/22 00:39:56;;;;;;;10.05;3.58;;;;;;;18.23;100.00;101693.47;5044494;28;20847;-73
2022/07/22 00:42:23;;;;;;;8.05;3.40;;;;;;;18.18;100.00;101689.13;5035637;28;20049;-74
2022/07/22 00:44:50;;;;;;;10.60;3.60;;;;;;;18.23;100.00;101699.88;5046458;28;20163;-71
2022/07/22 00:47:17;;;;;;;11.13;3.78;;;;;;;18.21;100.00;101696.69;5038716;28;20059;-74
2022/07/22 00:49:44;;;;;;;9.30;4.20;;;;;;;18.22;100.00;101697.50;5041217;28;20098;-73
2022/07/22 00:52:11;;;;;;;8.82;3.95;;;;;;;18.21;100.00;101695.88;5044464;28;20179;-73
2022/07/22 00:54:38;;;;;;;13.82;4.32;;;;;;;18.20;100.00;101692.31;5041763;28;20965;-73
2022/07/22 00:57:05;;;;;;;16.00;4.82;;;;;;;18.19;100.00;101701.91;5039556;28;20059;-72
2022/07/22 00:59:31;;;;;;;10.95;4.65;;;;;;;18.16;100.00;101687.97;5052297;28;20094;-75
2022/07/22 01:01:58;;;;;;;13.02;4.72;;;;;;;18.20;100.00;101689.50;5037351;28;20053;-72
2022/07/22 01:04:25;;;;;;;11.32;3.80;;;;;;;18.20;100.00;101683.91;5038223;28;20052;-74
2022/07/22 01:06:51;;;;;;;12.13;3.92;;;;;;;18.18;100.00;101688.34;5038003;28;20063;-73
2022/07/22 01:09:18;;;;;;;11.93;3.90;;;;;;;18.20;100.00;101692.31;5042144;28;20421;-72
2022/07/22 01:11:44;;;;;;;11.23;3.72;;;;;;;18.25;100.00;101700.22;5040369;28;20474;-72
2022/07/22 01:14:12;;;;;;;11.98;3.72;;;;;;;18.27;100.00;101697.78;5038833;28;20080;-73
2022/07/22 01:16:39;;;;;;;10.27;3.28;;;;;;;18.27;100.00;101694.19;5047625;28;20044;-74
2022/07/22 01:19:09;;;;;;;9.80;3.83;;;;;;;18.25;100.00;101703.03;5045134;28;20099;-73
2022/07/22 01:21:36;;;;;;;12.18;3.72;;;;;;;18.13;100.00;101695.22;5050359;28;20045;-72
2022/07/22 01:24:04;;;;;;;10.63;3.58;;;;;;;18.12;100.00;101702.03;5042768;28;20536;-72
2022/07/22 01:26:30;;;;;;;9.38;3.97;;;;;;;18.06;100.00;101697.34;5040989;28;20482;-75
2022/07/22 01:28:57;;;;;;;15.25;3.60;;;;;;;18.02;100.00;101705.03;5048013;28;20053;-74
2022/07/22 01:31:24;;;;;;;10.70;3.53;;;;;;;17.99;100.00;101709.47;5042671;28;20174;-73
2022/07/22 01:33:51;;;;;;;8.18;3.58;;;;;;;17.94;100.00;101701.53;5047280;28;20048;-73
2022/07/22 01:36:18;;;;;;;10.23;3.60;;;;;;;17.93;100.00;101699.97;5053840;28;20048;-72
2022/07/22 01:38:45;;;;;;;12.85;3.92;;;;;;;17.98;100.00;101705.88;5044184;28;20181;-75
2022/07/22 01:41:12;;;;;;;11.40;3.63;;;;;;;18.02;100.00;101703.00;5042592;28;20235;-73
2022/07/22 01:43:39;;;;;;;12.52;4.13;;;;;;;18.01;100.00;101693.03;5050081;28;20049;-75
2022/07/22 01:46:06;;;;;;;12.45;3.85;;;;;;;17.98;100.00;101700.28;5060859;28;20139;-72
2022/07/22 01:48:32;;;;;;;8.98;3.88;;;;;;;17.98;100.00;101709.91;5063430;28;20052;-74
2022/07/22 01:50:59;;;;;;;12.20;4.07;;;;;;;17.94;100.00;101704.34;5063791;28;20040;-73
2022/07/22 01:53:26;;;;;;;10.50;3.70;;;;;;;17.90;100.00;101704.41;5062824;28;20052;-73
2022/07/22 01:55:52;;;;;;;11.38;4.20;;;;;;;17.93;100.00;101705.56;5061305;28;20051;-75
2022/07/22 01:58:19;;;;;;;10.18;4.15;;;;;;;17.93;100.00;101711.16;5051152;28;20479;-73
2022/07/22 02:00:48;;;;;;;12.77;3.85;;;;;;;17.98;100.00;101707.09;5063780;28;20067;-74
2022/07/22 02:03:15;;;;;;;9.65;3.92;;;;;;;17.95;100.00;101703.91;5064464;28;20161;-74
2022/07/22 02:05:41;;;;;;;10.10;3.67;;;;;;;17.94;100.00;101701.53;5054822;28;20102;-72
2022/07/22 02:08:09;;;;;;;9.98;4.13;;;;;;;17.95;100.00;101708.72;5065316;28;20054;-72
2022/07/22 02:10:37;;;;;;;9.82;3.75;;;;;;;17.95;100.00;101711.50;5066315;28;20473;-71
2022/07/22 02:13:04;;;;;;;10.25;4.25;;;;;;;17.94;100.00;101707.94;5051721;28;20080;-72
2022/07/22 02:15:30;;;;;;;10.40;4.28;;;;;;;17.96;100.00;101699.88;5055217;28;20049;-70
2022/07/22 02:17:57;;;;;;;13.57;4.20;;;;;;;17.99;100.00;101707.44;5061229;28;20040;-73
2022/07/22 02:20:24;;;;;;;10.38;4.07;;;;;;;18.00;100.00;101702.66;5066765;28;20062;-74
2022/07/22 02:22:51;;;;;;;14.13;3.80;;;;;;;18.05;100.00;101699.34;5066528;28;20131;-72
2022/07/22 02:25:17;;;;;;;10.68;3.95;;;;;;;18.04;100.00;101692.19;5068542;28;20052;-73
2022/07/22 02:27:44;;;;;;;6.63;3.75;;;;;;;18.05;100.00;101696.53;5050887;28;20076;-73
2022/07/22 02:30:11;;;;;;;10.52;4.25;;;;;;;18.07;100.00;101694.13;5065156;28;20045;-69
2022/07/22 02:32:37;;;;;;;10.25;4.07;;;;;;;18.05;100.00;101696.53;5058651;28;20052;-71
2022/07/22 02:35:04;;;;;;;9.75;3.70;;;;;;;18.10;100.00;101692.47;5059320;28;20475;-73
2022/07/22 02:37:31;;;;;;;14.15;4.13;;;;;;;18.11;100.00;101692.06;5061426;28;20048;-70
2022/07/22 02:39:58;;;;;;;13.20;4.10;;;;;;;18.13;100.00;101689.63;5065213;28;20087;-72
2022/07/22 02:42:25;;;;;;;14.02;4.53;;;;;;;18.10;100.00;101687.69;5061039;28;20049;-72
2022/07/22 02:44:51;;;;;;;13.63;4.47;;;;;;;18.14;100.00;101696.81;5063569;28;20065;-72
2022/07/22 02:47:18;;;;;;;15.20;4.30;;;;;;;18.14;100.00;101696.00;5054233;28;21451;-72
2022/07/22 02:49:45;;;;;;;13.38;3.85;;;;;;;18.11;100.00;101691.25;5063343;28;20059;-72
2022/07/22 02:52:11;;;;;;;11.40;3.72;;;;;;;18.11;100.00;101694.84;5056049;28;20083;-72
2022/07/22 02:54:38;;;;;;;12.32;4.00;;;;;;;18.14;100.00;101690.41;5054443;28;20160;-73
2022/07/22 02:57:04;;;;;;;14.98;4.70;;;;;;;18.14;100.00;101691.22;5052630;28;20128;-74
2022/07/22 02:59:31;;;;;;;13.43;5.10;;;;;;;18.11;100.00;101699.66;5059312;28;20048;-72
2022/07/22 03:01:57;;;;;;;13.25;5.07;;;;;;;18.05;100.00;101688.16;5059440;28;20123;-72
2022/07/22 03:04:24;;;;;;;13.52;4.78;;;;;;;18.05;100.00;101693.75;5063209;28;20064;-72
2022/07/22 03:06:51;;;;;;;13.48;4.32;;;;;;;18.02;100.00;101703.00;5059584;28;20135;-73
2022/07/22 03:09:17;;;;;;;10.07;4.15;;;;;;;18.02;100.00;101693.81;5060210;28;20084;-73
2022/07/22 03:11:44;;;;;;;24.98;5.05;;;;;;;18.03;100.00;101693.41;5059416;28;20051;-71
2022/07/22 03:14:11;;;;;;;17.50;5.22;;;;;;;18.02;100.00;101692.59;5062103;28;20044;-72
2022/07/22 03:16:38;;;;;;;11.52;4.15;;;;;;;17.99;100.00;101703.88;5065750;28;20114;-71
2022/07/22 03:19:05;;;;;;;14.25;4.50;;;;;;;17.98;100.00;101704.28;5055565;28;20091;-71
2022/07/22 03:21:32;;;;;;;14.50;4.38;;;;;;;17.93;100.00;101705.56;5063507;28;20102;-72
2022/07/22 03:24:00;;;;;;;11.82;3.88;;;;;;;17.95;100.00;101711.50;5049755;28;20055;-70
2022/07/22 03:26:26;;;;;;;13.05;3.97;;;;;;;17.91;100.00;101705.19;5048714;28;20092;-74
2022/07/22 03:28:53;;;;;;;18.90;4.53;;;;;;;17.87;100.00;101708.06;5056864;28;20102;-73
2022/07/22 03:31:20;;;;;;;17.02;4.90;;;;;;;17.88;100.00;101711.63;5056907;28;20131;-73
2022/07/22 03:33:46;;;;;;;16.90;4.05;;;;;;;17.80;100.00;101702.56;5053975;28;20135;-72
2022/07/22 03:36:13;;;;;;;8.35;3.90;;;;;;;17.79;100.00;101714.94;5056455;28;20056;-71
2022/07/22 03:38:39;;;;;;;10.45;3.75;;;;;;;17.79;100.00;101711.38;5055406;28;20079;-73
2022/07/22 03:41:06;;;;;;;14.23;4.22;;;;;;;17.77;100.00;101706.19;5058736;28;20044;-72
2022/07/22 03:43:33;;;;;;;10.52;3.78;;;;;;;17.74;100.00;101709.03;5062247;28;20055;-72
2022/07/22 03:45:59;;;;;;;12.88;4.47;;;;;;;17.82;100.00;101713.34;5064959;28;20131;-72
2022/07/22 03:48:26;;;;;;;12.38;4.22;;;;;;;17.83;100.00;101712.13;5059542;28;20102;-72
2022/07/22 03:50:53;;;;;;;12.40;4.32;;;;;;;17.83;100.00;101712.13;5059119;28;20045;-70
2022/07/22 03:53:20;;;;;;;13.82;4.25;;;;;;;17.77;100.00;101713.81;5055710;28;20079;-72
2022/07/22 03:55:47;;;;;;;15.85;4.20;;;;;;;17.70;100.00;101714.72;5061199;28;20140;-73
2022/07/22 03:58:16;;;;;;;21.25;4.95;;;;;;;17.73;100.00;101715.88;5048593;28;20055;-75
2022/07/22 04:00:44;;;;;;;8.57;4.15;;;;;;;17.79;100.00;101716.97;5055537;28;20052;-72
2022/07/22 04:03:10;;;;;;;15.60;4.63;;;;;;;17.79;100.00;101711.38;5056484;28;20091;-72
2022/07/22 04:05:37;;;;;;;17.48;5.15;;;;;;;17.71;100.00;101721.88;5054613;28;20045;-72
2022/07/22 04:08:04;;;;;;;12.95;4.20;;;;;;;17.64;100.00;101704.38;5063940;28;20040;-72
2022/07/22 04:10:30;;;;;;;12.68;4.03;;;;;;;17.64;100.00;101715.59;5053493;28;20461;-72
2022/07/22 04:12:57;;;;;;;11.13;3.92;;;;;;;17.61;100.00;101710.81;5059955;28;20072;-73
2022/07/22 04:15:23;;;;;;;16.13;3.95;;;;;;;17.59;100.00;101716.84;5050072;28;20063;-70
2022/07/22 04:17:51;;;;;;;20.90;4.35;;;;;;;17.52;100.00;101719.75;5050577;28;20041;-72
2022/07/22 04:20:17;;;;;;;10.18;4.25;;;;;;;17.48;100.00;101721.81;5064314;28;20148;-72
2022/07/22 04:22:44;;;;;;;11.93;4.05;;;;;;;17.50;100.00;101722.19;5051297;28;20097;-72
2022/07/22 04:25:11;;;;;;;16.02;5.22;;;;;;;17.40;100.00;101711.91;5057893;28;20125;-72
2022/07/22 04:27:37;;;;;;;11.40;3.75;;;;;;;17.38;100.00;101714.31;5051560;28;20124;-74
2022/07/22 04:30:04;;;;;;;10.27;3.97;;;;;;;17.41;100.00;101709.88;5055804;28;20067;-72
2022/07/22 04:32:31;;;;;;;15.00;4.28;;;;;;;17.44;100.00;101717.47;5060918;28;20080;-73
2022/07/22 04:34:57;;;;;;;11.55;3.75;;;;;;;17.41;100.00;101724.66;5059017;28;20135;-73
2022/07/22 04:37:24;;;;;;;15.38;4.07;;;;;;;17.36;100.00;101716.75;5053286;28;20059;-72
2022/07/22 04:39:51;;;;;;;14.90;4.38;;;;;;;17.38;100.00;101707.94;5063434;28;20474;-72
2022/07/22 04:42:18;;;;;;;19.13;4.75;;;;;;;17.43;100.00;101716.69;5054542;28;20390;-72
2022/07/22 04:44:44;;;;;;;16.52;4.72;;;;;;;17.48;100.00;101723.78;5058203;28;20513;-73
2022/07/22 04:47:12;;;;;;;11.57;3.85;;;;;;;17.50;100.00;101719.38;5052500;28;20041;-73
2022/07/22 04:49:38;;;;;;;15.63;4.32;;;;;;;17.49;100.00;101708.63;5063416;28;20460;-73
2022/07/22 04:52:06;;;;;;;11.35;4.30;;;;;;;17.51;100.00;101711.75;5049809;28;20083;-72
2022/07/22 04:54:35;;;;;;;11.13;4.13;;;;;;;17.58;100.00;101708.88;5059446;28;20053;-74
2022/07/22 04:57:02;;;;;;;12.65;3.47;;;;;;;17.61;100.00;101710.81;5060401;28;20084;-72
2022/07/22 04:59:29;;;;;;;13.55;4.60;;;;;;;17.68;100.00;101713.53;5061697;28;20076;-71
2022/07/22 05:01:55;;;;;;;14.18;4.25;;;;;;;17.68;100.00;101710.72;5061685;28;20072;-74
2022/07/22 05:04:22;;;;;;;11.68;4.03;;;;;;;17.67;100.00;101701.56;5056167;28;20063;-72
2022/07/22 05:06:48;;;;;;;14.13;4.13;;;;;;;17.74;100.00;101706.25;5054259;28;20056;-73
2022/07/22 05:09:15;;;;;;;19.92;4.60;;;;;;;17.75;100.00;101708.63;5064287;28;20522;-72
2022/07/22 05:11:42;;;;;;;16.23;4.60;;;;;;;17.86;100.00;101709.25;5059555;28;20210;-72
2022/07/22 05:14:08;;;;;;;14.80;4.55;;;;;;;17.92;100.00;101710.34;5059507;28;20680;-72
2022/07/22 05:16:39;;;;;;;9.57;3.85;;;;;;;18.01;100.00;101712.63;5060595;28;20159;-72
2022/07/22 05:19:06;;;;;;;21.67;4.90;;;;;;;18.08;100.00;101717.34;5051788;28;20095;-72
2022/07/22 05:21:33;;;;;;;15.27;4.63;;;;;;;18.09;100.00;101718.91;5057842;28;20076;-75
2022/07/22 05:24:00;;;;;;;14.57;4.10;;;;;;;18.11;100.00;101710.84;5064906;28;20079;-72
2022/07/22 05:26:29;;;;;;;11.25;3.88;;;;;;;18.19;100.00;101706.75;5060733;28;20067;-73
2022/07/22 05:28:55;;;;;;;19.33;4.43;;;;;;;18.21;100.00;101719.09;5054695;28;20071;-71
2022/07/22 05:31:23;;;;;;;12.50;3.90;;;;;;;18.29;100.00;101716.97;5068953;28;20079;-72
2022/07/22 05:33:50;;;;;;;12.43;3.72;;;;;;;18.33;100.00;101723.31;5060641;28;20080;-72
2022/07/22 05:36:17;;;;;;;17.10;4.32;;;;;;;18.40;100.00;101721.22;5062466;28;20056;-72
2022/07/22 05:38:44;;;;;;;17.02;3.97;;;;;;;18.45;100.00;101717.91;5066357;28;20135;-73
2022/07/22 05:41:10;;;;;;;8.80;3.45;;;;;;;18.48;100.00;101722.66;5049714;28;20160;-73
2022/07/22 05:43:37;;;;;;;10.82;4.20;;;;;;;18.53;100.00;101732.59;5058177;28;20048;-73
2022/07/22 05:46:04;;;;;;;14.40;4.50;;;;;;;18.59;100.00;101730.91;5061763;28;20064;-73
2022/07/22 05:48:31;;;;;;;11.77;3.65;;;;;;;18.62;100.00;101733.63;5062592;28;20052;-73
2022/07/22 05:50:58;;;;;;;9.98;4.00;;;;;;;18.67;100.00;101723.94;5061812;28;20560;-73
2022/07/22 05:53:24;;;;;;;14.98;3.58;;;;;;;18.65;100.00;101718.75;5050677;28;20163;-72
2022/07/22 05:55:51;;;;;;;14.80;4.53;;;;;;;18.73;100.00;101727.84;5058939;28;20055;-73
2022/07/22 05:58:17;;;;;;;17.70;5.68;;;;;;;18.75;100.00;101723.38;5069292;28;20044;-73
2022/07/22 06:00:44;;;;;;;19.58;4.55;;;;;;;18.86;100.00;101723.19;5059218;28;20572;-74
2022/07/22 06:03:11;;;;;;;16.42;6.90;;;;;;;18.87;100.00;101719.91;5056621;28;20044;-73
2022/07/22 06:05:43;;;;;;;11.35;4.40;;;;;;;18.85;100.00;101716.78;5054502;28;20059;-75
2022/07/22 06:08:10;;;;;;;17.88;4.90;;;;;;;18.93;100.00;101709.78;5050117;28;20421;-72
2022/07/22 06:10:37;;;;;;;15.35;5.63;;;;;;;18.97;100.00;101718.91;5051944;28;20131;-72
2022/07/22 06:13:03;;;;;;;17.02;5.60;;;;;;;19.03;100.00;101717.22;5056373;28;20163;-72
2022/07/22 06:15:30;;;;;;;13.18;4.35;;;;;;;19.10;100.00;101714.25;5071760;28;20140;-72
2022/07/22 06:17:57;;;;;;;16.60;5.22;;;;;;;19.09;100.00;101709.88;5067977;28;20064;-72
2022/07/22 06:20:23;;;;;;;16.38;4.80;;;;;;;19.13;100.00;101716.19;5052990;28;20079;-74
2022/07/22 06:22:50;;;;;;;15.30;4.63;;;;;;;19.20;100.00;101716.06;5049783;28;20083;-70
2022/07/22 06:25:16;;;;;;;14.43;5.10;;;;;;;19.24;100.00;101711.16;5062797;28;20147;-71
2022/07/22 06:28:03;;;;;;;10.35;4.00;;;;;;;19.27;100.00;101713.13;5058716;28;20044;-71
2022/07/22 06:30:30;;;;;;;12.75;4.05;;;;;;;19.30;100.00;101717.09;5058556;28;20051;-71
2022/07/22 06:32:56;;;;;;;13.23;4.50;;;;;;;19.37;100.00;101714.91;5058994;28;20048;-74
2022/07/22 06:35:25;;;;;;;10.95;3.78;;;;;;;19.43;100.00;101721.63;5053019;28;20056;-73
2022/07/22 06:37:53;;;;;;;11.38;3.75;;;;;;;19.48;100.00;101721.09;5065106;28;20142;-72
2022/07/22 06:40:41;;;;;;;13.73;3.88;;;;;;;19.46;100.00;101723.56;5065075;28;20581;-71
2022/07/22 06:43:08;;;;;;;9.55;3.35;;;;;;;19.51;100.00;101723.03;5064591;28;20090;-78
2022/07/22 06:45:35;;;;;;;11.25;3.95;;;;;;;19.49;100.00;101719.88;5071012;28;20094;-73
2022/07/22 06:48:02;;;;;;;10.40;3.90;;;;;;;19.55;100.00;101726.56;5064917;28;20080;-70
2022/07/22 06:50:29;;;;;;;8.85;3.00;;;;;;;19.58;100.00;101716.47;5054626;28;20059;-75
2022/07/22 06:52:56;;;;;;;8.48;2.15;;;;;;;19.62;100.00;101723.59;5070508;28;20127;-72
2022/07/22 06:55:22;;;;;;;10.02;2.30;;;;;;;19.63;100.00;101713.94;5062678;28;20048;-72
2022/07/22 06:57:49;;;;;;;9.15;2.50;;;;;;;19.65;100.00;101719.91;5062708;28;20052;-75
2022/07/22 07:00:16;;;;;;;8.25;2.50;;;;;;;19.70;100.00;101722.22;5054374;28;20052;-69
2022/07/22 07:02:43;;;;;;;9.98;2.90;;;;;;;19.71;100.00;101718.16;5060042;28;20068;-70
2022/07/22 07:05:10;;;;;;;11.15;2.78;;;;;;;19.74;100.00;101711.69;5061464;28;20056;-69
2022/07/22 07:07:46;;;;;;;8.90;3.22;;;;;;;19.77;100.00;101710.00;5068540;28;20122;-70
2022/07/22 07:10:15;;;;;;;6.95;2.13;;;;;;;19.76;100.00;101709.25;5053161;28;20110;-74
2022/07/22 07:12:41;;;;;;;10.82;2.40;;;;;;;19.74;100.00;101702.47;5064296;28;20049;-72
2022/07/22 07:15:09;;;;;;;9.30;3.03;;;;;;;19.74;100.00;101708.06;5053484;28;20060;-71
2022/07/22 07:17:53;;;;;;;5.85;1.75;;;;;;;19.77;100.00;101710.81;5049352;28;20080;-68
2022/07/22 07:20:20;;;;;;;7.95;2.47;;;;;;;19.79;100.00;101713.19;5057024;28;20052;-71
2022/07/22 07:22:46;;;;;;;7.85;2.10;;;;;;;19.81;100.00;101705.13;5052942;28;20106;-69
2022/07/22 07:25:13;;;;;;;6.40;2.17;;;;;;;19.77;100.00;101699.59;5057469;28;20057;-71
2022/07/22 07:27:49;;;;;;;10.98;2.40;;;;;;;19.77;100.00;101701.59;5058000;28;20505;-74
2022/07/22 07:30:16;;;;;;;6.57;2.33;;;;;;;19.78;100.00;101703.97;5066054;28;20068;-72
2022/07/22 07:32:43;;;;;;;11.10;1.92;;;;;;;19.81;100.00;101705.91;5064495;28;20056;-71
2022/07/22 07:35:10;;;;;;;10.77;2.33;;;;;;;19.85;100.00;101703.78;5056923;28;20052;-71
2022/07/22 07:37:36;;;;;;;7.78;2.40;;;;;;;19.87;100.00;101703.34;5065000;28;20163;-72
2022/07/22 07:40:05;;;;;;;6.68;2.00;;;;;;;19.90;100.00;101700.47;5068614;28;20091;-72
2022/07/22 07:42:32;;;;;;;10.20;2.85;;;;;;;19.95;100.00;101699.16;5053533;28;20052;-69
2022/07/22 07:44:59;;;;;;;7.28;2.45;;;;;;;19.95;100.00;101699.94;5057719;28;20422;-71
2022/07/22 07:47:25;;;;;;;9.68;2.65;;;;;;;19.94;100.00;101695.56;5058755;28;20124;-71
2022/07/22 07:49:52;;;;;;;8.93;2.30;;;;;;;19.94;100.00;101695.56;5058912;28;20131;-68
2022/07/22 07:52:19;;;;;;;10.48;3.15;;;;;;;19.97;100.00;101702.31;5050442;28;20131;-71
2022/07/22 07:54:46;;;;;;;9.30;2.90;;;;;;;19.93;100.00;101710.84;5059050;28;20123;-71
2022/07/22 07:57:33;;;;;;;7.78;2.78;;;;;;;19.91;100.00;101706.91;5052056;28;20045;-70
2022/07/22 08:00:01;;;;;;;5.65;2.60;;;;;;;19.90;100.00;101708.91;5054812;28;20128;-72
2022/07/22 08:02:28;;;;;;;10.35;3.05;;;;;;;19.86;100.00;101708.19;5060444;28;20063;-69
2022/07/22 08:04:55;;;;;;;9.10;2.95;;;;;;;19.78;100.00;101692.72;5051441;28;20144;-73
2022/07/22 08:07:25;;;;;;;12.70;3.30;;;;;;;19.75;100.00;101702.03;5058496;28;20052;-69
2022/07/22 08:09:52;;;;;;;5.13;2.28;;;;;;;19.79;100.00;101697.13;5058467;28;20036;-70
2022/07/22 08:12:39;;;;;;;10.48;3.17;;;;;;;19.87;100.00;101704.16;5053058;28;20052;-71
2022/07/22 08:15:07;;;;;;;11.30;3.58;;;;;;;19.97;100.00;101703.13;5064177;28;20056;-70
2022/07/22 08:17:34;;;;;;;6.60;2.63;;;;;;;20.00;100.00;101707.06;5062357;28;20136;-71
2022/07/22 08:20:03;;;;;;;6.80;2.50;;;;;;;20.05;100.00;101704.50;5056628;28;20045;-70
2022/07/22 08:22:30;;;;;;;7.90;2.35;;;;;;;20.10;100.00;101704.00;5047954;28;20057;-70
2022/07/22 08:24:57;;;;;;;11.07;2.90;;;;;;;20.13;100.00;101700.34;5061658;28;20272;-73
2022/07/22 08:27:24;;;;;;;8.27;3.38;;;;;;;20.17;100.00;101703.84;5061053;28;20049;-72
2022/07/22 08:29:50;;;;;;;12.65;3.35;;;;;;;20.17;100.00;101697.44;5059271;28;20037;-71
2022/07/22 08:32:17;;;;;;;8.18;3.13;;;;;;;20.17;100.00;101700.25;5064959;28;20053;-71
2022/07/22 08:34:44;;;;;;;6.30;3.10;;;;;;;20.20;100.00;101702.19;5063327;28;20048;-70
2022/07/22 08:37:10;;;;;;;9.00;3.42;;;;;;;20.17;100.00;101703.84;5057265;28;20049;-71
2022/07/22 08:39:37;;;;;;;10.77;4.35;;;;;;;19.97;100.00;101705.94;5064011;28;20072;-71
2022/07/22 08:42:04;;;;;;;8.00;3.42;;;;;;;19.90;100.00;101702.50;5057838;28;20044;-69
2022/07/22 08:44:32;;;;;;;7.47;3.00;;;;;;;19.96;100.00;101706.34;5058567;28;20068;-70
2022/07/22 08:47:00;;;;;;;7.85;3.10;;;;;;;20.04;100.00;101700.13;5055111;28;20080;-69
2022/07/22 08:49:47;;;;;;;10.88;3.17;;;;;;;20.13;100.00;101699.53;5057424;28;20056;-70
2022/07/22 08:52:14;;;;;;;7.53;3.00;;;;;;;20.21;100.00;101703.75;5065507;28;20572;-71
2022/07/22 08:54:40;;;;;;;9.55;2.90;;;;;;;20.31;100.00;101700.69;5061245;28;20053;-70
2022/07/22 08:57:07;;;;;;;10.98;3.40;;;;;;;20.33;100.00;101706.66;5055148;28;20063;-69
2022/07/22 08:59:52;;;;;;;11.90;3.55;;;;;;;20.14;100.00;101701.13;5052321;28;20069;-70
2022/07/22 09:02:19;;;;;;;8.65;2.85;;;;;;;20.15;100.00;101714.72;5057334;28;22088;-70
2022/07/22 09:05:16;;;;;;;9.25;3.20;;;;;;;19.96;100.00;101709.16;5069366;28;20475;-69
2022/07/22 09:08:03;;;;;;;10.50;4.10;;;;;;;19.97;100.00;101708.72;5052689;28;20059;-71
2022/07/22 09:10:32;;;;;;;14.93;3.80;;;;;;;19.87;100.00;101712.59;5056313;28;20485;-69
2022/07/22 09:13:04;;;;;;;12.73;4.47;;;;;;;19.90;100.00;101711.72;5062689;28;20056;-69
2022/07/22 09:15:35;;;;;;;10.02;4.32;;;;;;;19.86;100.00;101708.19;5058081;28;20076;-71
2022/07/22 09:18:03;;;;;;;13.82;6.25;;;;;;;19.85;100.00;101708.63;5064192;28;20515;-70
2022/07/22 09:20:34;;;;;;;10.52;3.67;;;;;;;19.85;100.00;101711.44;5059826;28;20146;-73
2022/07/22 09:23:02;;;;;;;8.77;3.85;;;;;;;19.94;100.00;101708.81;5047455;28;20159;-74
2022/07/22 09:25:35;;;;;;;11.10;4.18;;;;;;;20.07;100.00;101709.69;5054073;28;21584;-72
2022/07/22 09:28:05;;;;;;;9.57;4.07;;;;;;;20.18;100.00;101710.25;5055488;28;20048;-70
2022/07/22 09:30:44;;;;;;;7.88;3.88;;;;;;;20.13;100.00;101716.41;5053279;28;20080;-73
2022/07/22 09:33:12;;;;;;;10.25;3.72;;;;;;;20.13;100.00;101711.59;5048475;28;20052;-75
2022/07/22 09:35:39;;;;;;;10.93;4.20;;;;;;;20.08;100.00;101703.63;5053508;28;20864;-73
2022/07/22 09:38:17;;;;;;;11.65;4.00;;;;;;;20.22;100.00;101706.13;5054986;28;20102;-72
2022/07/22 09:40:48;;;;;;;12.85;3.97;;;;;;;20.39;100.00;101704.13;5051271;28;20045;-74
2022/07/22 09:43:17;;;;;;;12.20;4.00;;;;;;;20.55;100.00;101708.91;5042661;28;20154;-74
2022/07/22 09:45:57;;;;;;;9.65;3.92;;;;;;;20.66;100.00;101700.97;5045810;28;20068;-74
2022/07/22 09:48:25;;;;;;;11.57;4.20;;;;;;;20.78;100.00;101708.69;5049986;28;20123;-73
2022/07/22 09:50:55;;;;;;;9.57;3.80;;;;;;;20.84;100.00;101716.16;5048164;28;20086;-70
2022/07/22 09:53:23;;;;;;;9.73;4.28;;;;;;;20.96;100.00;101709.03;5045031;28;20052;-73
2022/07/22 09:55:50;;;;;;;10.48;4.43;;;;;;;21.05;100.00;101709.94;5045596;28;20060;-76
2022/07/22 09:58:17;;;;;;;12.20;5.53;;;;;;;21.12;100.00;101708.97;5047267;28;20063;-73
2022/07/22 10:00:45;;;;;;;12.57;4.50;;;;;;;21.12;100.00;101714.59;5045910;28;20149;-70
2022/07/22 10:03:21;;;;;;;12.95;4.75;;;;;;;21.12;100.00;101709.75;5041157;28;20950;-72
2022/07/22 10:05:48;;;;;;;8.35;3.85;;;;;;;21.20;100.00;101710.34;5044934;28;20181;-72
2022/07/22 10:08:15;;;;;;;11.40;3.95;;;;;;;21.24;100.00;101699.75;5051176;28;20064;-74
2022/07/22 10:10:41;;;;;;;15.68;4.05;;;;;;;21.29;100.00;101704.84;5047819;28;20048;-72
2022/07/22 10:13:09;;;;;;;9.20;4.10;;;;;;;21.32;100.00;101703.94;5041272;28;20163;-74
2022/07/22 10:15:38;;;;;;;10.90;4.70;;;;;;;21.30;100.00;101709.22;5052196;28;20068;-71
2022/07/22 10:18:14;;;;;;;11.05;3.72;;;;;;;21.29;100.00;101702.03;5044699;28;20059;-72
2022/07/22 10:20:41;;;;;;;9.90;4.30;;;;;;;21.30;100.00;101709.22;5059682;28;20153;-76
2022/07/22 10:23:10;;;;;;;11.55;4.50;;;;;;;21.25;100.00;101702.13;5041445;28;20454;-74
2022/07/22 10:26:01;;;;;;;13.73;5.00;;;;;;;21.23;100.00;101698.19;5057161;28;20136;-77
2022/07/22 10:28:32;;;;;;;10.57;5.30;;;;;;;21.30;100.00;101703.59;5057311;28;20049;-73
2022/07/22 10:31:19;;;;;;;13.40;5.47;;;;;;;21.37;100.00;101701.38;5052878;28;20129;-76
2022/07/22 10:33:56;;;;;;;21.38;5.63;;;;;;;21.40;100.00;101699.69;5039832;28;20060;-71
2022/07/22 10:36:42;;;;;;;12.23;4.90;;;;;;;21.41;100.00;101696.41;5040913;28;20049;-72
2022/07/22 10:39:11;;;;;;;11.77;5.20;;;;;;;21.44;100.00;101695.53;5041384;28;20173;-74
2022/07/22 10:41:41;;;;;;;11.95;5.30;;;;;;;21.46;100.00;101689.44;5033577;28;22279;-73
2022/07/22 10:44:10;;;;;;;14.13;5.65;;;;;;;21.49;100.00;101688.53;5037513;28;20052;-75
2022/07/22 10:46:54;;;;;;;12.93;5.85;;;;;;;21.66;100.00;101682.34;5038429;28;20068;-71
2022/07/22 10:49:24;;;;;;;11.55;5.18;;;;;;;21.89;100.00;101678.44;5051302;28;20052;-72
2022/07/22 10:52:06;;;;;;;11.57;5.32;;;;;;;22.10;98.69;101672.09;5040241;28;20059;-68
2022/07/22 10:54:55;;;;;;;;;;;;;;;22.27;95.34;101671.50;5035866;28;20580;-74
2022/07/22 10:57:32;;;;;;;15.18;6.03;;;;;;;22.48;94.19;101662.31;5043241;28;19924;-73
2022/07/22 11:00:06;;;;;;;13.85;6.10;;;;;;;22.57;93.63;101648.31;5043883;28;20163;-74
2022/07/22 11:02:37;;;;;;;13.77;6.05;;;;;;;22.72;92.35;101645.78;5034126;28;20476;-70
2022/07/22 11:05:05;;;;;;;16.70;7.55;;;;;;;23.10;93.90;101648.38;5038777;28;20778;-74
2022/07/22 11:07:34;;;;;;;14.05;8.35;;;;;;;23.48;91.90;101657.41;5036209;28;20049;-72
2022/07/22 11:10:17;;;;;;;19.48;8.80;;;;;;;23.64;83.21;101659.97;5047066;28;20049;-74
2022/07/22 11:12:49;;;;;;;14.75;7.75;;;;;;;23.76;87.15;101650.63;5041906;28;20770;-71
2022/07/22 11:15:17;;;;;;;18.15;9.55;;;;;;;23.65;78.75;101648.22;5037982;28;20063;-71
2022/07/22 11:17:44;;;;;;;20.15;10.52;;;;;;;23.42;81.58;101657.22;5050737;28;20060;-72